createdAt,value
2018-11-02T00:00:06.072Z,978.32
2018-11-02T00:01:05.991Z,978.30
2018-11-02T00:02:05.883Z,978.30
2018-11-02T00:03:05.808Z,978.25
2018-11-02T00:04:05.721Z,978.29
2018-11-02T00:05:05.648Z,978.29
2018-11-02T00:06:05.567Z,978.31
2018-11-02T00:07:05.493Z,978.30
2018-11-02T00:08:05.395Z,978.31
2018-11-02T00:09:05.329Z,978.32
2018-11-02T00:10:05.231Z,978.30
2018-11-02T00:11:05.171Z,978.26
2018-11-02T00:12:05.118Z,978.27
2018-11-02T00:13:04.993Z,978.32
2018-11-02T00:14:04.913Z,978.33
2018-11-02T00:15:04.831Z,978.39
2018-11-02T00:16:04.749Z,978.44
2018-11-02T00:17:04.668Z,978.45
2018-11-02T00:18:04.585Z,978.49
2018-11-02T00:19:04.503Z,978.57
2018-11-02T00:20:04.422Z,978.56
2018-11-02T00:21:04.357Z,978.61
2018-11-02T00:22:04.260Z,978.61
2018-11-02T00:23:04.171Z,978.66
2018-11-02T00:24:04.093Z,978.65
2018-11-02T00:25:04.012Z,978.70
2018-11-02T00:26:03.936Z,978.71
2018-11-02T00:27:03.842Z,978.72
2018-11-02T00:28:03.772Z,978.74
2018-11-02T00:29:03.683Z,978.70
2018-11-02T00:30:03.612Z,978.79
2018-11-02T00:31:03.522Z,978.80
2018-11-02T00:32:03.469Z,978.81
2018-11-02T00:33:03.353Z,978.79
2018-11-02T00:34:03.278Z,978.78
2018-11-02T00:35:03.184Z,978.81
2018-11-02T00:36:03.127Z,978.79
2018-11-02T00:37:03.025Z,978.80
2018-11-02T00:38:02.952Z,978.83
2018-11-02T00:39:02.861Z,978.86
2018-11-02T00:40:02.788Z,978.88
2018-11-02T00:41:02.696Z,978.93
2018-11-02T00:42:02.623Z,978.96
2018-11-02T00:43:02.534Z,978.96
2018-11-02T00:44:02.581Z,978.97
2018-11-02T00:45:02.376Z,978.97
2018-11-02T00:46:02.295Z,978.95
2018-11-02T00:47:02.211Z,978.93
2018-11-02T00:48:02.133Z,978.90
2018-11-02T00:49:02.045Z,978.91
2018-11-02T00:50:01.971Z,978.86
2018-11-02T00:51:01.882Z,978.93
2018-11-02T00:52:01.807Z,978.96
2018-11-02T00:53:01.720Z,978.94
2018-11-02T00:54:01.641Z,978.94
2018-11-02T00:55:01.553Z,978.96
2018-11-02T00:56:01.478Z,978.89
2018-11-02T00:57:01.391Z,978.96
2018-11-02T00:58:01.316Z,979.01
2018-11-02T00:59:01.227Z,979.01
2018-11-02T01:00:01.153Z,978.99
2018-11-02T01:01:01.062Z,979.04
2018-11-02T01:02:00.986Z,979.01
2018-11-02T01:03:00.933Z,979.06
2018-11-02T01:04:00.817Z,979.06
2018-11-02T01:05:00.743Z,979.10
2018-11-02T01:06:00.653Z,979.07
2018-11-02T01:07:00.581Z,979.08
2018-11-02T01:08:00.492Z,979.06
2018-11-02T01:09:00.415Z,979.11
2018-11-02T01:10:00.324Z,979.10
2018-11-02T01:11:00.249Z,979.14
2018-11-02T01:12:00.163Z,979.13
2018-11-02T01:13:00.089Z,979.14
2018-11-02T01:13:59.996Z,979.14
2018-11-02T01:14:59.927Z,979.17
2018-11-02T01:15:59.840Z,979.16
2018-11-02T01:16:59.764Z,979.13
2018-11-02T01:17:59.670Z,979.15
2018-11-02T01:18:59.594Z,979.19
2018-11-02T01:19:59.541Z,979.18
2018-11-02T01:20:59.431Z,979.21
2018-11-02T01:21:59.342Z,979.16
2018-11-02T01:22:59.269Z,979.08
2018-11-02T01:23:59.178Z,979.02
2018-11-02T01:24:59.107Z,979.01
2018-11-02T01:25:59.014Z,979.05
2018-11-02T01:26:58.939Z,979.02
2018-11-02T01:27:58.852Z,979.01
2018-11-02T01:28:58.774Z,978.99
2018-11-02T01:29:58.686Z,978.98
2018-11-02T01:30:58.613Z,978.96
2018-11-02T01:31:58.524Z,978.95
2018-11-02T01:32:58.453Z,978.94
2018-11-02T01:33:58.358Z,978.92
2018-11-02T01:34:58.303Z,978.96
2018-11-02T01:35:58.236Z,978.98
2018-11-02T01:36:58.127Z,978.95
2018-11-02T01:37:58.068Z,978.94
2018-11-02T01:38:57.955Z,978.90
2018-11-02T01:39:57.869Z,978.92
2018-11-02T01:40:57.791Z,978.89
2018-11-02T01:41:57.704Z,978.88
2018-11-02T01:42:57.630Z,978.90
2018-11-02T01:43:57.541Z,978.91
2018-11-02T01:44:57.468Z,978.92
2018-11-02T01:45:57.376Z,978.92
2018-11-02T01:46:57.303Z,978.95
2018-11-02T01:47:57.214Z,978.88
2018-11-02T01:48:57.145Z,978.90
2018-11-02T01:49:57.051Z,978.93
2018-11-02T01:50:56.975Z,978.92
2018-11-02T01:51:56.884Z,978.89
2018-11-02T01:52:56.809Z,978.88
2018-11-02T01:53:56.721Z,978.88
2018-11-02T01:54:56.646Z,978.86
2018-11-02T01:55:56.560Z,978.83
2018-11-02T01:56:56.488Z,978.82
2018-11-02T01:57:56.393Z,978.82
2018-11-02T01:58:56.319Z,978.80
2018-11-02T01:59:56.231Z,978.85
2018-11-02T02:00:56.157Z,978.90
2018-11-02T02:01:56.068Z,978.96
2018-11-02T02:02:55.990Z,978.96
2018-11-02T02:03:55.904Z,978.97
2018-11-02T02:04:55.830Z,978.99
2018-11-02T02:05:55.740Z,979.01
2018-11-02T02:06:55.663Z,979.04
2018-11-02T02:07:55.574Z,979.00
2018-11-02T02:08:55.502Z,979.03
2018-11-02T02:09:55.408Z,979.08
2018-11-02T02:10:55.334Z,979.08
2018-11-02T02:11:55.249Z,979.09
2018-11-02T02:12:55.175Z,979.05
2018-11-02T02:13:55.082Z,979.09
2018-11-02T02:14:55.009Z,979.07
2018-11-02T02:15:54.918Z,979.11
2018-11-02T02:16:54.843Z,979.12
2018-11-02T02:17:54.753Z,979.13
2018-11-02T02:18:54.679Z,979.16
2018-11-02T02:19:54.589Z,979.20
2018-11-02T02:20:54.515Z,979.21
2018-11-02T02:21:54.425Z,979.24
2018-11-02T02:22:54.350Z,979.21
2018-11-02T02:23:54.261Z,979.24
2018-11-02T02:24:54.185Z,979.19
2018-11-02T02:25:54.096Z,979.15
2018-11-02T02:26:54.026Z,979.15
2018-11-02T02:27:53.932Z,979.12
2018-11-02T02:28:53.858Z,979.15
2018-11-02T02:29:53.767Z,979.16
2018-11-02T02:30:53.704Z,979.12
2018-11-02T02:31:53.606Z,979.12
2018-11-02T02:32:53.563Z,979.11
2018-11-02T02:33:53.440Z,979.08
2018-11-02T02:34:53.366Z,979.10
2018-11-02T02:35:53.295Z,979.11
2018-11-02T02:36:53.203Z,979.10
2018-11-02T02:37:53.111Z,979.09
2018-11-02T02:38:53.033Z,979.10
2018-11-02T02:39:52.949Z,979.11
2018-11-02T02:40:52.871Z,979.12
2018-11-02T02:41:52.787Z,979.15
2018-11-02T02:42:52.720Z,979.15
2018-11-02T02:43:52.620Z,979.17
2018-11-02T02:44:52.546Z,979.18
2018-11-02T02:45:52.452Z,979.21
2018-11-02T02:46:52.379Z,979.21
2018-11-02T02:47:52.290Z,979.25
2018-11-02T02:48:52.218Z,979.26
2018-11-02T02:49:52.130Z,979.33
2018-11-02T02:50:52.052Z,979.32
2018-11-02T02:51:51.962Z,979.34
2018-11-02T02:52:51.888Z,979.37
2018-11-02T02:53:51.795Z,979.37
2018-11-02T02:54:51.722Z,979.39
2018-11-02T02:55:51.635Z,979.35
2018-11-02T02:56:51.562Z,979.30
2018-11-02T02:57:51.471Z,979.31
2018-11-02T02:58:51.456Z,979.25
2018-11-02T02:59:51.306Z,979.24
2018-11-02T03:00:51.235Z,979.25
2018-11-02T03:01:51.151Z,979.25
2018-11-02T03:02:51.069Z,979.28
2018-11-02T03:03:50.981Z,979.27
2018-11-02T03:04:50.902Z,979.28
2018-11-02T03:05:50.811Z,979.31
2018-11-02T03:06:50.735Z,979.33
2018-11-02T03:07:50.651Z,979.31
2018-11-02T03:08:50.577Z,979.31
2018-11-02T03:09:50.482Z,979.30
2018-11-02T03:10:50.596Z,979.28
2018-11-02T03:11:50.322Z,979.29
2018-11-02T03:12:50.247Z,979.28
2018-11-02T03:13:50.157Z,979.29
2018-11-02T03:14:50.078Z,979.22
2018-11-02T03:15:49.992Z,979.26
2018-11-02T03:16:49.924Z,979.24
2018-11-02T03:17:49.826Z,979.26
2018-11-02T03:18:49.828Z,979.23
2018-11-02T03:19:49.678Z,979.31
2018-11-02T03:20:49.589Z,979.33
2018-11-02T03:21:49.496Z,979.39
2018-11-02T03:22:49.420Z,979.43
2018-11-02T03:23:49.331Z,979.45
2018-11-02T03:24:49.259Z,979.53
2018-11-02T03:25:49.166Z,979.53
2018-11-02T03:26:49.094Z,979.54
2018-11-02T03:27:49.002Z,979.54
2018-11-02T03:28:48.927Z,979.56
2018-11-02T03:29:48.839Z,979.63
2018-11-02T03:30:48.762Z,979.65
2018-11-02T03:31:48.675Z,979.67
2018-11-02T03:32:48.599Z,979.69
2018-11-02T03:33:48.507Z,979.72
2018-11-02T03:34:48.432Z,979.70
2018-11-02T03:35:48.345Z,979.71
2018-11-02T03:36:48.295Z,979.70
2018-11-02T03:37:48.176Z,979.68
2018-11-02T03:38:48.116Z,979.70
2018-11-02T03:39:48.049Z,979.63
2018-11-02T03:40:47.938Z,979.63
2018-11-02T03:41:47.849Z,979.66
2018-11-02T03:42:47.773Z,979.60
2018-11-02T03:43:47.683Z,979.61
2018-11-02T03:44:47.608Z,979.61
2018-11-02T03:45:47.517Z,979.62
2018-11-02T03:46:47.444Z,979.61
2018-11-02T03:47:47.353Z,979.57
2018-11-02T03:48:47.293Z,979.55
2018-11-02T03:49:47.191Z,979.54
2018-11-02T03:50:47.202Z,979.56
2018-11-02T03:51:47.022Z,979.54
2018-11-02T03:52:46.950Z,979.54
2018-11-02T03:53:46.857Z,979.57
2018-11-02T03:54:46.791Z,979.60
2018-11-02T03:55:46.693Z,979.62
2018-11-02T03:56:46.638Z,979.61
2018-11-02T03:57:46.551Z,979.61
2018-11-02T03:58:46.467Z,979.59
2018-11-02T03:59:46.366Z,979.62
2018-11-02T04:00:46.286Z,979.61
2018-11-02T04:01:46.207Z,979.57
2018-11-02T04:02:46.116Z,979.62
2018-11-02T04:03:46.047Z,979.59
2018-11-02T04:04:45.952Z,979.61
2018-11-02T04:05:45.878Z,979.63
2018-11-02T04:06:45.786Z,979.55
2018-11-02T04:07:45.712Z,979.57
2018-11-02T04:08:45.687Z,979.61
2018-11-02T04:09:45.611Z,979.58
2018-11-02T04:10:45.458Z,979.61
2018-11-02T04:11:45.382Z,979.68
2018-11-02T04:12:45.293Z,979.73
2018-11-02T04:13:45.216Z,979.76
2018-11-02T04:14:45.126Z,979.77
2018-11-02T04:15:45.055Z,979.77
2018-11-02T04:16:44.981Z,979.76
2018-11-02T04:17:44.889Z,979.77
2018-11-02T04:18:44.796Z,979.78
2018-11-02T04:19:44.723Z,979.86
2018-11-02T04:20:44.632Z,979.81
2018-11-02T04:21:44.561Z,979.85
2018-11-02T04:22:44.467Z,979.83
2018-11-02T04:23:44.392Z,979.80
2018-11-02T04:24:44.303Z,979.75
2018-11-02T04:25:44.226Z,979.76
2018-11-02T04:26:44.139Z,979.74
2018-11-02T04:27:44.067Z,979.74
2018-11-02T04:28:43.973Z,979.78
2018-11-02T04:29:43.899Z,979.76
2018-11-02T04:30:43.860Z,979.82
2018-11-02T04:31:43.737Z,979.81
2018-11-02T04:32:43.642Z,979.81
2018-11-02T04:33:43.566Z,979.84
2018-11-02T04:34:43.473Z,979.88
2018-11-02T04:35:43.402Z,979.92
2018-11-02T04:36:43.314Z,979.93
2018-11-02T04:37:43.237Z,979.98
2018-11-02T04:38:43.150Z,979.97
2018-11-02T04:39:43.074Z,980.03
2018-11-02T04:40:42.981Z,979.99
2018-11-02T04:41:42.903Z,980.01
2018-11-02T04:42:42.816Z,979.99
2018-11-02T04:43:42.748Z,979.97
2018-11-02T04:44:42.651Z,979.93
2018-11-02T04:45:42.574Z,979.94
2018-11-02T04:46:42.526Z,979.89
2018-11-02T04:47:42.408Z,979.87
2018-11-02T04:48:42.322Z,979.91
2018-11-02T04:49:42.244Z,979.88
2018-11-02T04:50:42.155Z,979.87
2018-11-02T04:51:42.079Z,979.92
2018-11-02T04:52:42.006Z,979.93
2018-11-02T04:53:41.914Z,979.98
2018-11-02T04:54:41.821Z,979.96
2018-11-02T04:55:41.746Z,980.01
2018-11-02T04:56:41.665Z,980.04
2018-11-02T04:57:41.585Z,980.09
2018-11-02T04:58:41.511Z,980.11
2018-11-02T04:59:41.412Z,980.15
2018-11-02T05:00:41.336Z,980.16
2018-11-02T05:01:41.242Z,980.13
2018-11-02T05:02:41.172Z,980.14
2018-11-02T05:03:41.089Z,980.14
2018-11-02T05:04:40.998Z,980.10
2018-11-02T05:05:40.925Z,980.13
2018-11-02T05:06:40.829Z,980.16
2018-11-02T05:07:40.756Z,980.16
2018-11-02T05:08:40.665Z,980.24
2018-11-02T05:09:40.598Z,980.25
2018-11-02T05:10:40.501Z,980.25
2018-11-02T05:11:40.426Z,980.20
2018-11-02T05:12:40.335Z,980.27
2018-11-02T05:13:40.256Z,980.25
2018-11-02T05:14:40.170Z,980.27
2018-11-02T05:15:40.094Z,980.25
2018-11-02T05:16:40.006Z,980.23
2018-11-02T05:17:39.927Z,980.20
2018-11-02T05:18:39.838Z,980.23
2018-11-02T05:19:39.761Z,980.27
2018-11-02T05:20:39.675Z,980.32
2018-11-02T05:21:39.593Z,980.32
2018-11-02T05:22:39.505Z,980.37
2018-11-02T05:23:39.439Z,980.40
2018-11-02T05:24:39.344Z,980.43
2018-11-02T05:25:39.274Z,980.45
2018-11-02T05:26:39.176Z,980.53
2018-11-02T05:27:39.104Z,980.54
2018-11-02T05:28:39.010Z,980.55
2018-11-02T05:29:38.937Z,980.58
2018-11-02T05:30:38.867Z,980.60
2018-11-02T05:31:38.780Z,980.65
2018-11-02T05:32:38.683Z,980.59
2018-11-02T05:33:38.607Z,980.64
2018-11-02T05:34:38.517Z,980.61
2018-11-02T05:35:38.440Z,980.65
2018-11-02T05:36:38.351Z,980.67
2018-11-02T05:37:38.277Z,980.76
2018-11-02T05:38:38.191Z,980.77
2018-11-02T05:39:38.190Z,980.74
2018-11-02T05:40:38.027Z,980.73
2018-11-02T05:41:37.968Z,980.66
2018-11-02T05:42:37.860Z,980.68
2018-11-02T05:43:37.791Z,980.68
2018-11-02T05:44:37.716Z,980.71
2018-11-02T05:45:37.626Z,980.71
2018-11-02T05:46:37.627Z,980.70
2018-11-02T05:47:37.546Z,980.72
2018-11-02T05:48:37.435Z,980.68
2018-11-02T05:49:37.320Z,980.70
2018-11-02T05:50:37.243Z,980.70
2018-11-02T05:51:37.153Z,980.69
2018-11-02T05:52:37.034Z,980.68
2018-11-02T05:53:36.974Z,980.75
2018-11-02T05:54:36.964Z,980.76
2018-11-02T05:55:36.777Z,980.80
2018-11-02T05:56:36.770Z,980.86
2018-11-02T05:57:36.609Z,980.89
2018-11-02T05:58:36.578Z,980.89
2018-11-02T05:59:36.445Z,980.97
2018-11-02T06:00:36.387Z,980.99
2018-11-02T06:01:36.383Z,980.97
2018-11-02T06:02:36.299Z,980.96
2018-11-02T06:03:36.114Z,980.99
2018-11-02T06:04:36.106Z,980.99
2018-11-02T06:05:35.942Z,981.00
2018-11-02T06:06:35.913Z,981.01
2018-11-02T06:07:35.839Z,981.00
2018-11-02T06:08:35.723Z,981.02
2018-11-02T06:09:35.614Z,981.03
2018-11-02T06:10:35.633Z,981.04
2018-11-02T06:11:35.450Z,981.01
2018-11-02T06:12:35.443Z,981.03
2018-11-02T06:13:35.350Z,981.03
2018-11-02T06:14:35.253Z,981.05
2018-11-02T06:15:35.119Z,981.11
2018-11-02T06:16:35.095Z,981.13
2018-11-02T06:17:34.951Z,981.12
2018-11-02T06:18:34.968Z,981.14
2018-11-02T06:19:34.986Z,981.12
2018-11-02T06:20:34.779Z,981.14
2018-11-02T06:21:34.620Z,981.15
2018-11-02T06:22:34.593Z,981.18
2018-11-02T06:23:34.462Z,981.23
2018-11-02T06:24:34.393Z,981.24
2018-11-02T06:25:34.354Z,981.25
2018-11-02T06:26:34.305Z,981.29
2018-11-02T06:27:34.126Z,981.28
2018-11-02T06:28:34.049Z,981.34
2018-11-02T06:29:34.021Z,981.34
2018-11-02T06:30:33.894Z,981.36
2018-11-02T06:31:33.827Z,981.38
2018-11-02T06:32:33.768Z,981.44
2018-11-02T06:33:33.740Z,981.44
2018-11-02T06:34:33.544Z,981.46
2018-11-02T06:35:33.546Z,981.52
2018-11-02T06:36:33.382Z,981.51
2018-11-02T06:37:33.302Z,981.52
2018-11-02T06:38:33.295Z,981.51
2018-11-02T06:39:33.139Z,981.51
2018-11-02T06:40:33.054Z,981.52
2018-11-02T06:41:33.073Z,981.52
2018-11-02T06:42:32.881Z,981.47
2018-11-02T06:43:32.882Z,981.49
2018-11-02T06:44:32.717Z,981.55
2018-11-02T06:45:32.640Z,981.54
2018-11-02T06:46:32.556Z,981.55
2018-11-02T06:47:32.468Z,981.56
2018-11-02T06:48:32.402Z,981.58
2018-11-02T06:49:32.308Z,981.61
2018-11-02T06:50:32.344Z,981.65
2018-11-02T06:51:32.142Z,981.67
2018-11-02T06:52:32.121Z,981.69
2018-11-02T06:53:31.971Z,981.71
2018-11-02T06:54:31.930Z,981.70
2018-11-02T06:55:31.813Z,981.72
2018-11-02T06:56:31.740Z,981.68
2018-11-02T06:57:31.676Z,981.70
2018-11-02T06:58:31.650Z,981.69
2018-11-02T06:59:31.663Z,981.71
2018-11-02T07:00:31.510Z,981.72
2018-11-02T07:01:31.364Z,981.73
2018-11-02T07:02:31.229Z,981.75
2018-11-02T07:03:31.158Z,981.78
2018-11-02T07:04:31.064Z,981.80
2018-11-02T07:05:30.983Z,981.78
2018-11-02T07:06:30.914Z,981.83
2018-11-02T07:07:30.947Z,981.86
2018-11-02T07:08:30.827Z,981.83
2018-11-02T07:09:30.653Z,981.87
2018-11-02T07:10:30.564Z,981.89
2018-11-02T07:11:30.594Z,981.87
2018-11-02T07:12:30.398Z,981.91
2018-11-02T07:13:30.401Z,981.92
2018-11-02T07:14:30.241Z,981.96
2018-11-02T07:15:30.212Z,981.97
2018-11-02T07:16:30.068Z,981.96
2018-11-02T07:17:30.023Z,981.99
2018-11-02T07:18:29.905Z,982.03
2018-11-02T07:19:29.934Z,982.02
2018-11-02T07:20:29.736Z,982.06
2018-11-02T07:21:29.661Z,982.10
2018-11-02T07:22:29.579Z,982.10
2018-11-02T07:23:29.552Z,982.19
2018-11-02T07:24:29.408Z,982.19
2018-11-02T07:25:29.362Z,982.25
2018-11-02T07:26:29.244Z,982.31
2018-11-02T07:27:29.275Z,982.27
2018-11-02T07:28:29.088Z,982.31
2018-11-02T07:29:29.005Z,982.28
2018-11-02T07:30:28.919Z,982.31
2018-11-02T07:31:28.842Z,982.36
2018-11-02T07:32:28.767Z,982.39
2018-11-02T07:33:28.702Z,982.43
2018-11-02T07:34:28.725Z,982.44
2018-11-02T07:35:28.611Z,982.44
2018-11-02T07:36:28.428Z,982.45
2018-11-02T07:37:28.422Z,982.46
2018-11-02T07:38:28.303Z,982.46
2018-11-02T07:39:28.229Z,982.48
2018-11-02T07:40:28.110Z,982.47
2018-11-02T07:41:28.041Z,982.47
2018-11-02T07:42:27.929Z,982.46
2018-11-02T07:43:27.953Z,982.46
2018-11-02T07:44:27.762Z,982.40
2018-11-02T07:45:27.681Z,982.45
2018-11-02T07:46:27.667Z,982.43
2018-11-02T07:47:27.525Z,982.49
2018-11-02T07:48:27.489Z,982.51
2018-11-02T07:49:27.351Z,982.52
2018-11-02T07:50:27.385Z,982.54
2018-11-02T07:51:27.189Z,982.55
2018-11-02T07:52:27.116Z,982.58
2018-11-02T07:53:27.098Z,982.56
2018-11-02T07:54:26.940Z,982.54
2018-11-02T07:55:26.905Z,982.48
2018-11-02T07:56:26.771Z,982.48
2018-11-02T07:57:26.693Z,982.52
2018-11-02T07:58:26.723Z,982.50
2018-11-02T07:59:26.532Z,982.49
2018-11-02T08:00:26.556Z,982.53
2018-11-02T08:01:26.364Z,982.51
2018-11-02T08:02:26.342Z,982.49
2018-11-02T08:03:26.199Z,982.44
2018-11-02T08:04:26.121Z,982.41
2018-11-02T08:05:26.052Z,982.47
2018-11-02T08:06:25.951Z,982.50
2018-11-02T08:07:25.876Z,982.56
2018-11-02T08:08:25.870Z,982.54
2018-11-02T08:09:25.704Z,982.57
2018-11-02T08:10:25.678Z,982.54
2018-11-02T08:11:25.561Z,982.55
2018-11-02T08:12:25.462Z,982.60
2018-11-02T08:13:25.507Z,982.66
2018-11-02T08:14:25.294Z,982.61
2018-11-02T08:15:25.303Z,982.64
2018-11-02T08:16:25.135Z,982.63
2018-11-02T08:17:25.120Z,982.58
2018-11-02T08:18:24.970Z,982.58
2018-11-02T08:19:24.920Z,982.55
2018-11-02T08:20:24.797Z,982.52
2018-11-02T08:21:24.727Z,982.53
2018-11-02T08:22:24.737Z,982.57
2018-11-02T08:23:24.554Z,982.62
2018-11-02T08:24:24.606Z,982.65
2018-11-02T08:25:24.396Z,982.69
2018-11-02T08:26:24.321Z,982.67
2018-11-02T08:27:24.238Z,982.68
2018-11-02T08:28:24.155Z,982.62
2018-11-02T08:29:24.064Z,982.59
2018-11-02T08:30:24.077Z,982.59
2018-11-02T08:31:23.901Z,982.57
2018-11-02T08:32:23.822Z,982.56
2018-11-02T08:33:23.736Z,982.58
2018-11-02T08:34:23.692Z,982.60
2018-11-02T08:35:23.572Z,982.56
2018-11-02T08:36:23.497Z,982.56
2018-11-02T08:37:23.507Z,982.52
2018-11-02T08:38:23.337Z,982.47
2018-11-02T08:39:23.252Z,982.49
2018-11-02T08:40:23.181Z,982.47
2018-11-02T08:41:23.124Z,982.51
2018-11-02T08:42:23.003Z,982.49
2018-11-02T08:43:23.038Z,982.53
2018-11-02T08:44:22.835Z,982.54
2018-11-02T08:45:22.765Z,982.60
2018-11-02T08:46:22.707Z,982.61
2018-11-02T08:47:22.600Z,982.66
2018-11-02T08:48:22.562Z,982.69
2018-11-02T08:49:22.436Z,982.69
2018-11-02T08:50:22.369Z,982.65
2018-11-02T08:51:22.270Z,982.60
2018-11-02T08:52:22.453Z,982.61
2018-11-02T08:53:22.106Z,982.61
2018-11-02T08:54:22.092Z,982.65
2018-11-02T08:55:21.952Z,982.66
2018-11-02T08:56:21.897Z,982.70
2018-11-02T08:57:21.787Z,982.71
2018-11-02T08:58:21.842Z,982.71
2018-11-02T08:59:21.850Z,982.69
2018-11-02T09:00:21.602Z,982.69
2018-11-02T09:01:21.528Z,982.66
2018-11-02T09:02:21.384Z,982.62
2018-11-02T09:03:21.300Z,982.59
2018-11-02T09:04:21.221Z,982.55
2018-11-02T09:05:21.138Z,982.52
2018-11-02T09:06:21.057Z,982.55
2018-11-02T09:07:20.984Z,982.53
2018-11-02T09:08:20.956Z,982.53
2018-11-02T09:09:20.813Z,982.53
2018-11-02T09:10:20.733Z,982.56
2018-11-02T09:11:20.655Z,982.50
2018-11-02T09:12:20.573Z,982.49
2018-11-02T09:13:20.491Z,982.52
2018-11-02T09:14:20.411Z,982.51
2018-11-02T09:15:20.331Z,982.52
2018-11-02T09:16:20.257Z,982.54
2018-11-02T09:17:20.203Z,982.59
2018-11-02T09:18:20.125Z,982.65
2018-11-02T09:19:20.285Z,982.67
2018-11-02T09:20:19.931Z,982.70
2018-11-02T09:21:19.922Z,982.78
2018-11-02T09:22:19.809Z,982.80
2018-11-02T09:23:19.731Z,982.88
2018-11-02T09:24:19.606Z,982.90
2018-11-02T09:25:19.521Z,982.91
2018-11-02T09:26:19.452Z,982.95
2018-11-02T09:27:19.574Z,982.93
2018-11-02T09:28:19.286Z,982.94
2018-11-02T09:29:19.259Z,982.91
2018-11-02T09:30:19.126Z,982.92
2018-11-02T09:31:19.069Z,982.83
2018-11-02T09:32:18.964Z,982.87
2018-11-02T09:33:18.885Z,982.85
2018-11-02T09:34:18.884Z,982.86
2018-11-02T09:35:18.720Z,982.82
2018-11-02T09:36:18.649Z,982.84
2018-11-02T09:37:18.597Z,982.85
2018-11-02T09:38:18.481Z,982.85
2018-11-02T09:39:18.509Z,982.87
2018-11-02T09:40:18.377Z,982.90
2018-11-02T09:41:18.248Z,982.89
2018-11-02T09:42:18.165Z,982.85
2018-11-02T09:43:18.089Z,982.83
2018-11-02T09:44:18.012Z,982.82
2018-11-02T09:45:18.038Z,982.80
2018-11-02T09:46:17.848Z,982.78
2018-11-02T09:47:17.849Z,982.79
2018-11-02T09:48:17.688Z,982.82
2018-11-02T09:49:17.614Z,982.88
2018-11-02T09:50:17.524Z,982.85
2018-11-02T09:51:17.485Z,982.89
2018-11-02T09:52:17.378Z,982.92
2018-11-02T09:53:17.297Z,982.91
2018-11-02T09:54:17.209Z,982.89
2018-11-02T09:55:17.123Z,982.88
2018-11-02T09:56:17.089Z,982.87
2018-11-02T09:57:16.965Z,982.86
2018-11-02T09:58:16.892Z,982.87
2018-11-02T09:59:16.906Z,982.89
2018-11-02T10:00:16.734Z,982.89
2018-11-02T10:01:16.719Z,982.89
2018-11-02T10:02:16.665Z,982.95
2018-11-02T10:03:16.524Z,983.02
2018-11-02T10:04:16.415Z,983.00
2018-11-02T10:05:16.439Z,983.02
2018-11-02T10:06:16.255Z,982.97
2018-11-02T10:07:16.246Z,983.02
2018-11-02T10:08:16.114Z,982.96
2018-11-02T10:09:16.066Z,982.97
2018-11-02T10:10:15.933Z,982.94
2018-11-02T10:11:15.865Z,982.96
2018-11-02T10:12:15.782Z,982.99
2018-11-02T10:13:15.775Z,983.01
2018-11-02T10:14:15.624Z,982.98
2018-11-02T10:15:15.538Z,982.97
2018-11-02T10:16:15.489Z,982.95
2018-11-02T10:17:15.376Z,982.98
2018-11-02T10:18:15.399Z,982.95
2018-11-02T10:19:15.216Z,982.98
2018-11-02T10:20:15.147Z,982.97
2018-11-02T10:21:15.062Z,982.95
2018-11-02T10:22:15.017Z,982.91
2018-11-02T10:23:14.903Z,982.91
2018-11-02T10:24:14.929Z,982.93
2018-11-02T10:25:14.742Z,982.92
2018-11-02T10:26:14.740Z,982.92
2018-11-02T10:27:14.590Z,982.91
2018-11-02T10:28:14.622Z,982.91
2018-11-02T10:29:14.427Z,982.87
2018-11-02T10:30:14.459Z,982.90
2018-11-02T10:31:14.275Z,982.88
2018-11-02T10:32:14.267Z,982.84
2018-11-02T10:33:14.111Z,982.85
2018-11-02T10:34:14.180Z,982.88
2018-11-02T10:35:13.999Z,982.83
2018-11-02T10:36:13.987Z,982.87
2018-11-02T10:37:13.796Z,982.88
2018-11-02T10:38:13.796Z,982.89
2018-11-02T10:39:13.639Z,982.83
2018-11-02T10:40:13.707Z,982.81
2018-11-02T10:41:13.481Z,982.79
2018-11-02T10:42:13.523Z,982.80
2018-11-02T10:43:13.327Z,982.78
2018-11-02T10:44:13.382Z,982.75
2018-11-02T10:45:13.166Z,982.72
2018-11-02T10:46:13.102Z,982.75
2018-11-02T10:47:13.012Z,982.69
2018-11-02T10:48:13.043Z,982.67
2018-11-02T10:49:12.918Z,982.69
2018-11-02T10:50:12.859Z,982.70
2018-11-02T10:51:12.724Z,982.68
2018-11-02T10:52:12.769Z,982.67
2018-11-02T10:53:12.541Z,982.71
2018-11-02T10:54:12.575Z,982.68
2018-11-02T10:55:12.389Z,982.68
2018-11-02T10:56:12.384Z,982.70
2018-11-02T10:57:12.235Z,982.71
2018-11-02T10:58:12.298Z,982.71
2018-11-02T10:59:12.070Z,982.70
2018-11-02T11:00:12.053Z,982.72
2018-11-02T11:01:11.940Z,982.69
2018-11-02T11:02:11.914Z,982.66
2018-11-02T11:03:11.758Z,982.63
2018-11-02T11:04:11.824Z,982.58
2018-11-02T11:05:11.642Z,982.60
2018-11-02T11:06:11.648Z,982.54
2018-11-02T11:07:11.446Z,982.52
2018-11-02T11:08:11.545Z,982.48
2018-11-02T11:09:11.288Z,982.47
2018-11-02T11:10:11.354Z,982.46
2018-11-02T11:11:11.135Z,982.46
2018-11-02T11:12:11.165Z,982.49
2018-11-02T11:13:11.328Z,982.46
2018-11-02T11:14:10.903Z,982.50
2018-11-02T11:15:10.825Z,982.52
2018-11-02T11:16:10.881Z,982.56
2018-11-02T11:17:10.666Z,982.58
2018-11-02T11:18:10.692Z,982.61
2018-11-02T11:19:10.512Z,982.64
2018-11-02T11:20:10.606Z,982.68
2018-11-02T11:21:10.384Z,982.66
2018-11-02T11:22:10.412Z,982.64
2018-11-02T11:23:10.243Z,982.59
2018-11-02T11:24:10.220Z,982.57
2018-11-02T11:25:10.044Z,982.57
2018-11-02T11:26:10.134Z,982.53
2018-11-02T11:27:09.891Z,982.54
2018-11-02T11:28:09.950Z,982.52
2018-11-02T11:29:09.764Z,982.56
2018-11-02T11:30:09.754Z,982.55
2018-11-02T11:31:09.580Z,982.60
2018-11-02T11:32:09.511Z,982.64
2018-11-02T11:33:09.424Z,982.63
2018-11-02T11:34:09.475Z,982.67
2018-11-02T11:35:09.271Z,982.69
2018-11-02T11:36:09.280Z,982.61
2018-11-02T11:37:09.114Z,982.61
2018-11-02T11:38:09.191Z,982.61
2018-11-02T11:39:08.968Z,982.60
2018-11-02T11:40:09.001Z,982.58
2018-11-02T11:41:08.827Z,982.57
2018-11-02T11:42:08.914Z,982.60
2018-11-02T11:43:08.653Z,982.59
2018-11-02T11:44:08.720Z,982.58
2018-11-02T11:45:08.499Z,982.62
2018-11-02T11:46:08.529Z,982.61
2018-11-02T11:47:08.344Z,982.68
2018-11-02T11:48:08.339Z,982.63
2018-11-02T11:49:08.324Z,982.62
2018-11-02T11:50:08.760Z,982.58
2018-11-02T11:51:08.037Z,982.54
2018-11-02T11:52:08.061Z,982.51
2018-11-02T11:53:07.878Z,982.52
2018-11-02T11:54:07.974Z,982.51
2018-11-02T11:55:07.728Z,982.51
2018-11-02T11:56:07.779Z,982.53
2018-11-02T11:57:07.573Z,982.51
2018-11-02T11:58:07.589Z,982.55
2018-11-02T11:59:07.416Z,982.56
2018-11-02T12:00:07.351Z,982.56
2018-11-02T12:01:07.273Z,982.56
2018-11-02T12:02:07.199Z,982.59
2018-11-02T12:03:07.216Z,982.62
2018-11-02T12:04:07.054Z,982.67
2018-11-02T12:05:06.966Z,982.76
2018-11-02T12:06:06.883Z,982.84
2018-11-02T12:07:06.810Z,982.89
2018-11-02T12:08:06.839Z,982.88
2018-11-02T12:09:06.708Z,982.88
2018-11-02T12:10:06.769Z,982.86
2018-11-02T12:11:06.501Z,982.89
2018-11-02T12:12:06.557Z,982.88
2018-11-02T12:13:06.349Z,982.84
2018-11-02T12:14:06.366Z,982.86
2018-11-02T12:15:06.209Z,982.88
2018-11-02T12:16:06.241Z,982.89
2018-11-02T12:17:06.081Z,982.92
2018-11-02T12:18:05.964Z,982.92
2018-11-02T12:19:05.995Z,982.91
2018-11-02T12:20:05.810Z,982.88
2018-11-02T12:21:05.730Z,982.89
2018-11-02T12:22:05.810Z,982.86
2018-11-02T12:23:05.583Z,982.80
2018-11-02T12:24:05.619Z,982.78
2018-11-02T12:25:05.426Z,982.75
2018-11-02T12:26:05.529Z,982.72
2018-11-02T12:27:05.276Z,982.71